Chatsworth, Iowa
Current Conditions -  °F | °C
As of 5:15 AM on Sunday 23 Nov 2014 (Local Time) from KLRJ Reporting Station
Haze Haze  
Wind Chill: 50°   Ceiling: NA
Heat Index: 50°   Visibility: 6mi
Dew Point: 50°   Wind: 6mph
Humidity: 100%   Direction: 190°S
Pressure: 29.43"   Gusts: NA
Location:  42.92°N, 96.52°W
Report Text: KLRJ 231115Z AUTO 19005KT 6SM BR 10/10 A2943 RMK AO2
Loading
Personal Weather Stations






























Interactive Weather Map New forecast layout! Learn more

10-Day Weather Forecast

Advertisements
Track Severe Weather on mobile